createdAt,value
2023-02-04T00:00:24.484Z,3.05
2023-02-04T00:02:52.809Z,3.05
2023-02-04T00:05:21.974Z,3.02
2023-02-04T00:07:49.582Z,2.99
2023-02-04T00:10:17.397Z,2.96
2023-02-04T00:12:44.987Z,2.94
2023-02-04T00:15:12.589Z,2.90
2023-02-04T00:17:40.349Z,2.85
2023-02-04T00:20:08.467Z,2.80
2023-02-04T00:22:37.409Z,2.78
2023-02-04T00:25:05.414Z,2.73
2023-02-04T00:27:33.010Z,2.69
2023-02-04T00:30:00.784Z,2.65
2023-02-04T00:32:28.395Z,2.60
2023-02-04T00:34:56.189Z,2.57
2023-02-04T00:37:23.939Z,2.53
2023-02-04T00:39:52.918Z,2.50
2023-02-04T00:42:20.496Z,2.49
2023-02-04T00:44:48.108Z,2.47
2023-02-04T00:47:15.831Z,2.46
2023-02-04T00:49:43.497Z,2.41
2023-02-04T00:52:11.140Z,2.36
2023-02-04T00:54:38.735Z,2.32
2023-02-04T00:57:07.650Z,2.28
2023-02-04T00:59:35.266Z,2.20
2023-02-04T01:02:03.496Z,2.15
2023-02-04T01:04:31.382Z,2.10
2023-02-04T01:06:59.341Z,2.06
2023-02-04T01:09:27.811Z,2.00
2023-02-04T01:11:55.532Z,1.94
2023-02-04T01:14:24.470Z,1.93
2023-02-04T01:16:52.153Z,1.90
2023-02-04T01:19:21.028Z,1.87
2023-02-04T01:21:48.618Z,1.87
2023-02-04T01:24:16.228Z,1.86
2023-02-04T01:27:06.843Z,1.85
2023-02-04T01:29:35.779Z,1.84
2023-02-04T01:32:03.507Z,1.83
2023-02-04T01:34:31.547Z,1.81
2023-02-04T01:36:59.229Z,1.81
2023-02-04T01:39:27.048Z,1.80
2023-02-04T01:41:54.738Z,1.81
2023-02-04T01:44:22.477Z,1.82
2023-02-04T01:46:51.446Z,1.80
2023-02-04T01:49:19.253Z,1.80
2023-02-04T01:51:46.954Z,1.81
2023-02-04T01:54:17.477Z,1.81
2023-02-04T01:56:48.680Z,1.82
2023-02-04T01:59:17.609Z,1.80
2023-02-04T02:01:47.139Z,1.77
2023-02-04T02:04:18.061Z,1.76
2023-02-04T02:06:50.282Z,1.75
2023-02-04T02:09:18.126Z,1.75
2023-02-04T02:11:45.815Z,1.73
2023-02-04T02:14:14.100Z,1.71
2023-02-04T02:16:42.101Z,1.67
2023-02-04T02:19:14.764Z,1.66
2023-02-04T02:21:49.063Z,1.62
2023-02-04T02:24:29.602Z,1.58
2023-02-04T02:27:00.446Z,1.56
2023-02-04T02:29:28.606Z,1.55
2023-02-04T02:31:57.696Z,1.53
2023-02-04T02:34:28.422Z,1.51
2023-02-04T02:36:56.754Z,1.49
2023-02-04T02:39:25.195Z,1.51
2023-02-04T02:41:55.767Z,1.47
2023-02-04T02:44:24.086Z,1.46
2023-02-04T02:46:52.031Z,1.44
2023-02-04T02:49:20.705Z,1.43
2023-02-04T02:51:49.222Z,1.43
2023-02-04T02:54:22.433Z,1.44
2023-02-04T02:56:51.858Z,1.44
2023-02-04T02:59:21.473Z,1.44
2023-02-04T03:01:52.814Z,1.43
2023-02-04T03:04:23.524Z,1.43
2023-02-04T03:06:52.321Z,1.42
2023-02-04T03:09:20.842Z,1.42
2023-02-04T03:11:49.377Z,1.43
2023-02-04T03:14:17.234Z,1.43
2023-02-04T03:16:47.873Z,1.45
2023-02-04T03:19:15.800Z,1.44
2023-02-04T03:21:44.290Z,1.45
2023-02-04T03:24:12.015Z,1.46
2023-02-04T03:26:39.718Z,1.46
2023-02-04T03:29:09.173Z,1.47
2023-02-04T03:31:37.794Z,1.48
2023-02-04T03:34:06.836Z,1.47
2023-02-04T03:36:34.550Z,1.47
2023-02-04T03:39:02.592Z,1.47
2023-02-04T03:41:30.321Z,1.47
2023-02-04T03:43:57.987Z,1.46
2023-02-04T03:46:26.026Z,1.48
2023-02-04T03:48:53.788Z,1.47
2023-02-04T03:51:22.784Z,1.46
2023-02-04T03:53:50.378Z,1.47
2023-02-04T03:56:18.120Z,1.47
2023-02-04T03:58:45.734Z,1.47
2023-02-04T04:01:13.412Z,1.45
2023-02-04T04:03:41.093Z,1.43
2023-02-04T04:06:10.169Z,1.41
2023-02-04T04:08:39.675Z,1.38
2023-02-04T04:11:07.415Z,1.35
2023-02-04T04:13:35.133Z,1.33
2023-02-04T04:16:03.539Z,1.29
2023-02-04T04:18:31.224Z,1.25
2023-02-04T04:20:58.820Z,1.22
2023-02-04T04:23:26.498Z,1.18
2023-02-04T04:25:55.560Z,1.12
2023-02-04T04:28:23.279Z,1.08
2023-02-04T04:30:50.945Z,1.03
2023-02-04T04:33:18.571Z,1.00
2023-02-04T04:35:46.175Z,0.96
2023-02-04T04:38:13.922Z,0.93
2023-02-04T04:40:41.527Z,0.88
2023-02-04T04:43:10.511Z,0.85
2023-02-04T04:45:38.090Z,0.82
2023-02-04T04:48:06.201Z,0.79
2023-02-04T04:50:34.225Z,0.76
2023-02-04T04:53:02.102Z,0.73
2023-02-04T04:55:29.710Z,0.72
2023-02-04T04:57:57.567Z,0.68
2023-02-04T05:00:26.807Z,0.64
2023-02-04T05:02:54.560Z,0.61
2023-02-04T05:05:22.228Z,0.57
2023-02-04T05:07:49.973Z,0.54
2023-02-04T05:10:18.318Z,0.49
2023-02-04T05:12:45.960Z,0.45
2023-02-04T05:15:13.675Z,0.40
2023-02-04T05:17:42.651Z,0.37
2023-02-04T05:20:11.232Z,0.34
2023-02-04T05:22:38.914Z,0.31
2023-02-04T05:25:07.187Z,0.28
2023-02-04T05:27:34.793Z,0.25
2023-02-04T05:30:02.454Z,0.22
2023-02-04T05:32:30.120Z,0.21
2023-02-04T05:34:59.043Z,0.16
2023-02-04T05:37:26.734Z,0.13
2023-02-04T05:39:54.534Z,0.10
2023-02-04T05:42:22.303Z,0.07
2023-02-04T05:44:49.969Z,0.03
2023-02-04T05:47:18.731Z,-0.01
2023-02-04T05:49:46.345Z,-0.04
2023-02-04T05:52:15.409Z,-0.07
2023-02-04T05:54:43.069Z,-0.09
2023-02-04T05:57:10.700Z,-0.13
2023-02-04T05:59:38.354Z,-0.16
2023-02-04T06:02:05.948Z,-0.20
2023-02-04T06:04:33.635Z,-0.23
2023-02-04T06:07:01.692Z,-0.27
2023-02-04T06:09:30.648Z,-0.31
2023-02-04T06:11:58.484Z,-0.34
2023-02-04T06:14:26.136Z,-0.38
2023-02-04T06:16:53.748Z,-0.40
2023-02-04T06:19:21.438Z,-0.44
2023-02-04T06:21:49.360Z,-0.48
2023-02-04T06:24:16.958Z,-0.51
2023-02-04T06:26:45.990Z,-0.55
2023-02-04T06:29:13.737Z,-0.59
2023-02-04T06:31:41.441Z,-0.61
2023-02-04T06:34:09.137Z,-0.64
2023-02-04T06:36:36.741Z,-0.67
2023-02-04T06:39:04.611Z,-0.69
2023-02-04T06:41:32.316Z,-0.73
2023-02-04T06:44:01.372Z,-0.74
2023-02-04T06:46:29.020Z,-0.76
2023-02-04T06:48:57.147Z,-0.78
2023-02-04T06:51:24.766Z,-0.81
2023-02-04T06:53:52.648Z,-0.82
2023-02-04T06:56:20.255Z,-0.83
2023-02-04T06:58:47.852Z,-0.85
2023-02-04T07:01:16.814Z,-0.86
2023-02-04T07:03:44.455Z,-0.89
2023-02-04T07:06:12.143Z,-0.89
2023-02-04T07:08:40.000Z,-0.90
2023-02-04T07:11:08.051Z,-0.91
2023-02-04T07:13:35.726Z,-0.92
2023-02-04T07:16:03.443Z,-0.91
2023-02-04T07:18:32.490Z,-0.92
2023-02-04T07:21:00.348Z,-0.92
2023-02-04T07:23:28.556Z,-0.90
2023-02-04T07:25:57.443Z,-0.89
2023-02-04T07:28:25.169Z,-0.86
2023-02-04T07:30:53.253Z,-0.88
2023-02-04T07:33:20.917Z,-0.86
2023-02-04T07:35:49.890Z,-0.86
2023-02-04T07:38:17.570Z,-0.84
2023-02-04T07:40:45.136Z,-0.84
2023-02-04T07:43:12.978Z,-0.84
2023-02-04T07:45:40.658Z,-0.82
2023-02-04T07:48:08.262Z,-0.80
2023-02-04T07:50:35.855Z,-0.78
2023-02-04T07:53:05.190Z,-0.76
2023-02-04T07:55:33.171Z,-0.74
2023-02-04T07:58:00.780Z,-0.71
2023-02-04T08:00:28.569Z,-0.69
2023-02-04T08:02:56.308Z,-0.65
2023-02-04T08:05:23.964Z,-0.62
2023-02-04T08:07:51.600Z,-0.57
2023-02-04T08:10:21.459Z,-0.52
2023-02-04T08:12:49.078Z,-0.48
2023-02-04T08:15:16.816Z,-0.45
2023-02-04T08:17:44.445Z,-0.42
2023-02-04T08:20:13.058Z,-0.38
2023-02-04T08:22:40.860Z,-0.35
2023-02-04T08:25:10.122Z,-0.30
2023-02-04T08:27:39.363Z,-0.28
2023-02-04T08:30:08.040Z,-0.24
2023-02-04T08:32:35.833Z,-0.20
2023-02-04T08:35:05.487Z,-0.17
2023-02-04T08:37:34.313Z,-0.13
2023-02-04T08:40:01.896Z,-0.09
2023-02-04T08:42:29.495Z,-0.07
2023-02-04T08:44:58.417Z,-0.04
2023-02-04T08:47:26.089Z,0.01
2023-02-04T08:49:53.769Z,0.05
2023-02-04T08:52:21.401Z,0.07
2023-02-04T08:54:49.010Z,0.11
2023-02-04T08:57:16.637Z,0.15
2023-02-04T08:59:45.809Z,0.22
2023-02-04T09:02:14.833Z,0.30
2023-02-04T09:04:42.493Z,0.36
2023-02-04T09:07:10.051Z,0.48
2023-02-04T09:09:37.827Z,0.58
2023-02-04T09:12:05.436Z,0.72
2023-02-04T09:14:33.011Z,0.88
2023-02-04T09:17:01.264Z,1.06
2023-02-04T09:19:30.226Z,1.26
2023-02-04T09:21:57.814Z,1.46
2023-02-04T09:24:25.496Z,1.65
2023-02-04T09:26:53.133Z,1.82
2023-02-04T09:29:20.751Z,2.00
2023-02-04T09:31:49.068Z,2.17
2023-02-04T09:34:16.769Z,2.34
2023-02-04T09:36:45.686Z,2.53
2023-02-04T09:39:13.431Z,2.75
2023-02-04T09:41:41.677Z,2.92
2023-02-04T09:44:17.432Z,3.11
2023-02-04T09:46:49.452Z,3.29
2023-02-04T09:49:17.489Z,3.48
2023-02-04T09:51:47.632Z,3.63
2023-02-04T09:54:18.213Z,3.77
2023-02-04T09:56:46.590Z,3.93
2023-02-04T09:59:16.116Z,4.12
2023-02-04T10:01:44.032Z,4.33
2023-02-04T10:04:14.702Z,4.55
2023-02-04T10:06:43.956Z,4.73
2023-02-04T10:09:14.533Z,4.91
2023-02-04T10:11:43.796Z,5.06
2023-02-04T10:14:14.961Z,5.22
2023-02-04T10:16:45.061Z,5.36
2023-02-04T10:19:15.513Z,5.54
2023-02-04T10:21:45.336Z,5.71
2023-02-04T10:24:17.113Z,5.85
2023-02-04T10:26:45.011Z,5.98
2023-02-04T10:29:17.425Z,5.98
2023-02-04T10:31:46.866Z,6.05
2023-02-04T10:34:18.660Z,6.17
2023-02-04T10:36:49.034Z,6.26
2023-02-04T10:39:20.621Z,6.37
2023-02-04T10:41:50.241Z,6.48
2023-02-04T10:44:21.040Z,6.62
2023-02-04T10:46:48.834Z,6.76
2023-02-04T10:49:19.797Z,6.91
2023-02-04T10:51:49.248Z,6.99
2023-02-04T10:54:32.231Z,7.01
2023-02-04T10:57:01.555Z,6.96
2023-02-04T10:59:29.759Z,7.01
2023-02-04T11:02:00.314Z,7.07
2023-02-04T11:04:29.272Z,7.18
2023-02-04T11:06:56.849Z,7.24
2023-02-04T11:09:25.853Z,7.36
2023-02-04T11:11:53.617Z,7.45
2023-02-04T11:14:28.175Z,7.49
2023-02-04T11:17:00.760Z,7.62
2023-02-04T11:19:38.143Z,7.75
2023-02-04T11:22:08.575Z,7.70
2023-02-04T11:24:37.495Z,7.53
2023-02-04T11:27:19.943Z,7.45
2023-02-04T11:29:48.018Z,7.45
2023-02-04T11:32:31.463Z,7.33
2023-02-04T11:35:25.269Z,7.20
2023-02-04T11:37:55.059Z,7.05
2023-02-04T11:40:31.097Z,6.99
2023-02-04T11:43:04.211Z,6.89
2023-02-04T11:45:34.931Z,6.64
2023-02-04T11:48:05.367Z,6.50
2023-02-04T11:50:34.548Z,6.38
2023-02-04T11:53:03.261Z,6.28
2023-02-04T11:55:36.068Z,6.23
2023-02-04T11:58:05.427Z,6.18
2023-02-04T12:00:34.201Z,6.17
2023-02-04T12:03:06.167Z,6.09
2023-02-04T12:05:40.749Z,6.04
2023-02-04T12:08:13.611Z,6.03
2023-02-04T12:10:49.413Z,6.04
2023-02-04T12:13:18.965Z,6.00
2023-02-04T12:15:56.598Z,6.00
2023-02-04T12:18:24.223Z,6.01
2023-02-04T12:20:51.777Z,5.98
2023-02-04T12:23:19.364Z,5.94
2023-02-04T12:25:48.698Z,5.91
2023-02-04T12:28:16.445Z,5.88
2023-02-04T12:30:44.166Z,5.83
2023-02-04T12:33:13.560Z,5.78
2023-02-04T12:35:42.687Z,5.76
2023-02-04T12:38:11.531Z,5.71
2023-02-04T12:40:39.275Z,5.69
2023-02-04T12:43:08.506Z,5.60
2023-02-04T12:45:36.109Z,5.53
2023-02-04T12:48:03.794Z,5.43
2023-02-04T12:50:32.739Z,5.32
2023-02-04T12:53:01.056Z,5.24
2023-02-04T12:55:29.974Z,5.17
2023-02-04T12:57:57.751Z,5.09
2023-02-04T13:00:27.599Z,4.99
2023-02-04T13:02:55.975Z,4.95
2023-02-04T13:05:23.600Z,5.22
2023-02-04T13:07:51.291Z,5.51
2023-02-04T13:10:20.033Z,5.77
2023-02-04T13:12:47.601Z,6.02
2023-02-04T13:15:15.213Z,6.25
2023-02-04T13:17:44.234Z,6.51
2023-02-04T13:20:12.813Z,6.73
2023-02-04T13:22:40.398Z,7.01
2023-02-04T13:25:09.476Z,7.26
2023-02-04T13:27:37.082Z,7.55
2023-02-04T13:30:05.314Z,7.79
2023-02-04T13:32:32.925Z,8.08
2023-02-04T13:35:01.845Z,8.36
2023-02-04T13:37:29.408Z,8.59
2023-02-04T13:39:57.017Z,8.77
2023-02-04T13:42:24.792Z,8.80
2023-02-04T13:44:52.525Z,8.70
2023-02-04T13:47:20.165Z,8.56
2023-02-04T13:49:47.832Z,8.42
2023-02-04T13:52:18.405Z,8.53
2023-02-04T13:54:46.091Z,8.65
2023-02-04T13:57:13.976Z,8.77
2023-02-04T13:59:41.574Z,8.86
2023-02-04T14:02:09.966Z,8.96
2023-02-04T14:04:37.615Z,9.05
2023-02-04T14:07:05.462Z,9.11
2023-02-04T14:09:34.400Z,9.14
2023-02-04T14:12:02.049Z,9.12
2023-02-04T14:14:29.718Z,9.14
2023-02-04T14:16:57.440Z,9.05
2023-02-04T14:19:27.619Z,9.00
2023-02-04T14:21:55.463Z,9.00
2023-02-04T14:24:23.068Z,8.97
2023-02-04T14:26:52.211Z,8.97
2023-02-04T14:29:19.822Z,8.85
2023-02-04T14:31:47.418Z,8.78
2023-02-04T14:34:15.130Z,8.66
2023-02-04T14:36:42.752Z,8.55
2023-02-04T14:39:10.344Z,8.41
2023-02-04T14:41:38.015Z,8.18
2023-02-04T14:44:07.088Z,8.10
2023-02-04T14:46:34.738Z,8.03
2023-02-04T14:49:02.445Z,7.93
2023-02-04T14:51:30.052Z,7.81
2023-02-04T14:53:57.723Z,7.71
2023-02-04T14:56:25.338Z,7.54
2023-02-04T14:58:52.961Z,7.31
2023-02-04T15:01:22.453Z,7.09
2023-02-04T15:03:50.921Z,6.93
2023-02-04T15:06:18.520Z,6.77
2023-02-04T15:08:46.361Z,6.63
2023-02-04T15:11:14.127Z,6.53
2023-02-04T15:13:41.789Z,6.45
2023-02-04T15:16:09.497Z,6.39
2023-02-04T15:18:38.558Z,6.27
2023-02-04T15:21:06.610Z,6.09
2023-02-04T15:23:34.263Z,5.97
2023-02-04T15:26:01.846Z,5.86
2023-02-04T15:28:31.002Z,5.73
2023-02-04T15:30:58.788Z,5.63
2023-02-04T15:33:26.660Z,5.52
2023-02-04T15:35:55.649Z,5.41
2023-02-04T15:38:23.274Z,5.32
2023-02-04T15:40:50.881Z,5.21
2023-02-04T15:43:18.478Z,5.13
2023-02-04T15:45:46.044Z,5.02
2023-02-04T15:48:13.714Z,4.90
2023-02-04T15:50:41.422Z,4.79
2023-02-04T15:53:10.402Z,4.66
2023-02-04T15:55:38.029Z,4.53
2023-02-04T15:58:05.644Z,4.42
2023-02-04T16:00:33.535Z,4.33
2023-02-04T16:03:01.610Z,4.24
2023-02-04T16:05:29.235Z,4.14
2023-02-04T16:07:56.938Z,4.04
2023-02-04T16:10:25.983Z,3.93
2023-02-04T16:12:54.977Z,3.82
2023-02-04T16:15:22.587Z,3.72
2023-02-04T16:17:51.018Z,3.61
2023-02-04T16:20:19.345Z,3.50
2023-02-04T16:22:46.959Z,3.40
2023-02-04T16:25:14.732Z,3.30
2023-02-04T16:27:43.813Z,3.20
2023-02-04T16:30:13.026Z,3.11
2023-02-04T16:32:40.708Z,2.99
2023-02-04T16:35:09.012Z,2.90
2023-02-04T16:37:37.769Z,2.80
2023-02-04T16:40:06.196Z,2.70
2023-02-04T16:42:33.887Z,2.60
2023-02-04T16:45:02.908Z,2.52
2023-02-04T16:47:30.590Z,2.42
2023-02-04T16:50:00.878Z,2.33
2023-02-04T16:52:28.570Z,2.23
2023-02-04T16:54:56.287Z,2.13
2023-02-04T16:57:23.911Z,2.05
2023-02-04T16:59:51.589Z,1.96
2023-02-04T17:02:20.503Z,1.86
2023-02-04T17:04:48.146Z,1.78
2023-02-04T17:07:15.870Z,1.70
2023-02-04T17:09:43.852Z,1.61
2023-02-04T17:12:11.541Z,1.55
2023-02-04T17:14:41.099Z,1.44
2023-02-04T17:17:09.038Z,1.36
2023-02-04T17:19:38.063Z,1.28
2023-02-04T17:22:05.707Z,1.20
2023-02-04T17:24:33.577Z,1.15
2023-02-04T17:27:03.307Z,1.07
2023-02-04T17:29:30.939Z,1.00
2023-02-04T17:31:58.517Z,0.93
2023-02-04T17:34:26.399Z,0.87
2023-02-04T17:36:55.558Z,0.82
2023-02-04T17:39:23.291Z,0.75
2023-02-04T17:41:50.883Z,0.69
2023-02-04T17:44:20.029Z,0.63
2023-02-04T17:46:47.819Z,0.57
2023-02-04T17:49:16.131Z,0.51
2023-02-04T17:51:43.780Z,0.46
2023-02-04T17:54:13.292Z,0.40
2023-02-04T17:56:40.878Z,0.34
2023-02-04T17:59:11.074Z,0.29
2023-02-04T18:01:38.891Z,0.24
2023-02-04T18:04:11.623Z,0.19
2023-02-04T18:06:39.354Z,0.12
2023-02-04T18:09:15.479Z,0.08
2023-02-04T18:11:43.681Z,0.03
2023-02-04T18:14:16.167Z,-0.02
2023-02-04T18:16:44.395Z,-0.08
2023-02-04T18:19:18.806Z,-0.13
2023-02-04T18:21:47.112Z,-0.19
2023-02-04T18:24:19.342Z,-0.25
2023-02-04T18:26:48.702Z,-0.29
2023-02-04T18:29:29.480Z,-0.35
2023-02-04T18:31:59.361Z,-0.41
2023-02-04T18:34:34.194Z,-0.47
2023-02-04T18:37:21.343Z,-0.51
2023-02-04T18:39:50.546Z,-0.56
2023-02-04T18:42:23.639Z,-0.60
2023-02-04T18:44:52.500Z,-0.65
2023-02-04T18:47:31.499Z,-0.70
2023-02-04T18:50:01.061Z,-0.74
2023-02-04T18:52:37.336Z,-0.77
2023-02-04T18:55:23.521Z,-0.81
2023-02-04T18:57:51.196Z,-0.85
2023-02-04T19:00:37.276Z,-0.87
2023-02-04T19:03:23.871Z,-0.90
2023-02-04T19:05:51.898Z,-0.94
2023-02-04T19:08:28.323Z,-0.97
2023-02-04T19:10:58.491Z,-0.99
2023-02-04T19:13:27.882Z,-1.02
2023-02-04T19:16:01.940Z,-1.06
2023-02-04T19:18:33.932Z,-1.07
2023-02-04T19:21:22.273Z,-1.11
2023-02-04T19:23:50.959Z,-1.15
2023-02-04T19:26:30.669Z,-1.18
2023-02-04T19:28:58.421Z,-1.20
2023-02-04T19:31:33.318Z,-1.24
2023-02-04T19:34:16.986Z,-1.26
2023-02-04T19:36:44.612Z,-1.31
2023-02-04T19:39:26.025Z,-1.34
2023-02-04T19:41:55.282Z,-1.36
2023-02-04T19:44:43.383Z,-1.39
2023-02-04T19:47:24.430Z,-1.41
2023-02-04T19:49:52.944Z,-1.44
2023-02-04T19:52:35.979Z,-1.46
2023-02-04T19:55:24.858Z,-1.48
2023-02-04T19:57:55.101Z,-1.49
2023-02-04T20:00:39.624Z,-1.54
2023-02-04T20:03:28.259Z,-1.57
2023-02-04T20:05:56.266Z,-1.62
2023-02-04T20:08:40.827Z,-1.65
2023-02-04T20:11:34.651Z,-1.70
2023-02-04T20:14:21.046Z,-1.76
2023-02-04T20:16:52.643Z,-1.80
2023-02-04T20:19:22.796Z,-1.83
2023-02-04T20:22:07.556Z,-1.85
2023-02-04T20:24:37.437Z,-1.87
2023-02-04T20:27:16.670Z,-1.87
2023-02-04T20:29:45.751Z,-1.91
2023-02-04T20:32:21.294Z,-1.92
2023-02-04T20:34:48.899Z,-1.94
2023-02-04T20:37:23.068Z,-1.96
2023-02-04T20:39:50.653Z,-1.99
2023-02-04T20:42:35.202Z,-2.00
2023-02-04T20:45:23.701Z,-2.01
2023-02-04T20:47:53.971Z,-2.04
2023-02-04T20:50:36.192Z,-2.07
2023-02-04T20:53:07.959Z,-2.08
2023-02-04T20:55:35.948Z,-2.11
2023-02-04T20:58:20.230Z,-2.13
2023-02-04T21:00:52.590Z,-2.14
2023-02-04T21:03:26.881Z,-2.17
2023-02-04T21:05:56.109Z,-2.19
2023-02-04T21:08:34.485Z,-2.23
2023-02-04T21:11:03.293Z,-2.26
2023-02-04T21:13:31.249Z,-2.29
2023-02-04T21:16:00.402Z,-2.32
2023-02-04T21:18:29.521Z,-2.33
2023-02-04T21:20:57.555Z,-2.39
2023-02-04T21:23:25.245Z,-2.39
2023-02-04T21:25:52.863Z,-2.42
2023-02-04T21:28:20.490Z,-2.44
2023-02-04T21:30:48.391Z,-2.46
2023-02-04T21:33:17.396Z,-2.49
2023-02-04T21:35:45.377Z,-2.51
2023-02-04T21:38:12.980Z,-2.53
2023-02-04T21:40:40.709Z,-2.55
2023-02-04T21:43:08.613Z,-2.57
2023-02-04T21:45:37.944Z,-2.58
2023-02-04T21:48:07.802Z,-2.61
2023-02-04T21:50:39.239Z,-2.63
2023-02-04T21:53:08.019Z,-2.65
2023-02-04T21:55:36.610Z,-2.67
2023-02-04T21:58:04.738Z,-2.69
2023-02-04T22:00:33.194Z,-2.68
2023-02-04T22:03:00.997Z,-2.70
2023-02-04T22:05:28.671Z,-2.72
2023-02-04T22:07:59.747Z,-2.72
2023-02-04T22:10:27.499Z,-2.74
2023-02-04T22:12:55.141Z,-2.75
2023-02-04T22:15:24.152Z,-2.77
2023-02-04T22:17:53.889Z,-2.76
2023-02-04T22:20:23.043Z,-2.77
2023-02-04T22:22:51.106Z,-2.75
2023-02-04T22:25:21.204Z,-2.73
2023-02-04T22:27:49.510Z,-2.73
2023-02-04T22:30:18.570Z,-2.71
2023-02-04T22:32:46.208Z,-2.69
2023-02-04T22:35:14.196Z,-2.70
2023-02-04T22:37:42.748Z,-2.69
2023-02-04T22:40:12.164Z,-2.69
2023-02-04T22:42:41.593Z,-2.67
2023-02-04T22:45:11.132Z,-2.68
2023-02-04T22:47:38.883Z,-2.65
2023-02-04T22:50:07.068Z,-2.67
2023-02-04T22:52:34.770Z,-2.67
2023-02-04T22:55:02.389Z,-2.68
2023-02-04T22:57:30.027Z,-2.68
2023-02-04T22:59:59.120Z,-2.67
2023-02-04T23:02:26.712Z,-2.68
2023-02-04T23:04:54.309Z,-2.69
2023-02-04T23:07:21.973Z,-2.70
2023-02-04T23:09:49.585Z,-2.71
2023-02-04T23:12:17.221Z,-2.73
2023-02-04T23:14:46.726Z,-2.75
2023-02-04T23:17:17.556Z,-2.77
2023-02-04T23:19:45.256Z,-2.79
2023-02-04T23:22:14.200Z,-2.79
2023-02-04T23:24:42.664Z,-2.80
2023-02-04T23:27:11.482Z,-2.82
2023-02-04T23:29:39.882Z,-2.82
2023-02-04T23:32:08.343Z,-2.83
2023-02-04T23:34:37.367Z,-2.83
2023-02-04T23:37:05.067Z,-2.83
2023-02-04T23:39:32.765Z,-2.83
2023-02-04T23:42:00.378Z,-2.85
2023-02-04T23:44:28.077Z,-2.87
2023-02-04T23:46:55.657Z,-2.89
2023-02-04T23:49:23.263Z,-2.92
2023-02-04T23:51:52.174Z,-2.95
2023-02-04T23:54:19.809Z,-2.98
2023-02-04T23:56:47.417Z,-2.99
2023-02-04T23:59:15.023Z,-3.03
